Towaco, New Jersey
Current Conditions -  °F | °C
As of 10:53 AM on Sunday 21 Dec 2014 (Local Time) from KCDW Reporting Station
Freezing Drizzle Freezing Drizzle  
Wind Chill: 27°   Ceiling: 1500
Heat Index: 32°   Visibility: 10mi
Dew Point: 25°   Wind: 5mph
Humidity: 75%   Direction: NA
Pressure: 30.33"   Gusts: NA
Location:  40.92°N, 74.34°W
Report Text: KCDW 211553Z VRB04KT 10SM -FZDZ OVC015 00/M04 A3033 RMK AO2 FZDZB50 SLP276 P0000 T00001039
Loading
Personal Weather Stations






























Interactive Weather Map New forecast layout! Learn more

10-Day Weather Forecast

Advertisements
Track Severe Weather on mobile